Time;durP1;ratioP1;P1;durP2;ratioP2;P2;SDS_P1;SDS_P2;PMS_P1;PMS_P2;Temp;Humidity;BMP_temperature;BMP_pressure;BME280_temperature;BME280_humidity;BME280_pressure;Samples;Min_cycle;Max_cycle;Signal;HPM_P1;HPM_P2
2023/06/08 00:02:03;;;;;;;10.95;6.22;;;21.30;95.40;;;;;;5022095;28;20552;-35
2023/06/08 00:04:32;;;;;;;11.25;6.50;;;21.30;95.40;;;;;;5017773;28;20221;-35
2023/06/08 00:07:03;;;;;;;7.72;6.22;;;21.20;95.40;;;;;;5023752;28;20671;-35
2023/06/08 00:09:33;;;;;;;11.35;6.65;;;21.20;95.50;;;;;;5022047;28;20215;-35
2023/06/08 00:12:06;;;;;;;12.50;6.43;;;21.20;95.40;;;;;;5021575;28;20211;-35
2023/06/08 00:14:35;;;;;;;12.02;7.57;;;21.20;95.50;;;;;;5024099;28;20200;-35
2023/06/08 00:17:08;;;;;;;11.93;6.53;;;21.10;95.40;;;;;;5023543;28;20232;-35
2023/06/08 00:19:38;;;;;;;8.75;6.45;;;21.10;95.50;;;;;;5017467;28;20249;-35
2023/06/08 00:22:08;;;;;;;15.43;7.25;;;21.00;95.40;;;;;;5002528;28;20657;-35
2023/06/08 00:24:40;;;;;;;10.25;6.20;;;21.00;95.50;;;;;;5002369;28;20198;-35
2023/06/08 00:27:10;;;;;;;12.98;6.57;;;21.00;95.60;;;;;;5020509;28;20223;-36
2023/06/08 00:29:37;;;;;;;11.45;6.97;;;20.90;95.50;;;;;;5016162;28;20562;-35
2023/06/08 00:32:05;;;;;;;9.40;6.30;;;20.90;95.60;;;;;;5021837;28;20219;-36
2023/06/08 00:34:35;;;;;;;13.38;6.50;;;20.90;95.60;;;;;;5022952;28;20538;-35
2023/06/08 00:37:06;;;;;;;10.88;6.28;;;20.90;95.60;;;;;;5013903;28;20355;-36
2023/06/08 00:39:41;;;;;;;11.30;7.05;;;20.80;95.50;;;;;;5001851;28;20657;-35
2023/06/08 00:42:12;;;;;;;14.45;7.25;;;20.80;95.50;;;;;;5004540;28;20287;-35
2023/06/08 00:44:41;;;;;;;12.65;6.70;;;20.80;95.70;;;;;;5021442;28;20270;-35
2023/06/08 00:47:11;;;;;;;11.18;6.65;;;20.70;95.60;;;;;;5005174;28;20642;-35
2023/06/08 00:49:38;;;;;;;11.45;6.47;;;20.70;95.70;;;;;;5020620;28;20263;-34
2023/06/08 00:52:12;;;;;;;12.50;7.03;;;20.70;95.70;;;;;;5021259;28;20756;-34
2023/06/08 00:54:39;;;;;;;13.13;7.32;;;20.60;95.80;;;;;;5006635;28;20206;-34
2023/06/08 00:57:09;;;;;;;12.48;7.13;;;20.60;95.70;;;;;;5012375;28;20561;-34
2023/06/08 00:59:36;;;;;;;9.10;6.70;;;20.60;95.70;;;;;;5010549;28;20282;-34
2023/06/08 01:02:08;;;;;;;11.95;6.80;;;20.50;95.70;;;;;;5004746;28;20304;-34
2023/06/08 01:04:36;;;;;;;11.45;7.07;;;20.50;95.80;;;;;;5013474;28;20236;-35
2023/06/08 01:07:36;;;;;;;9.85;6.65;;;20.40;95.70;;;;;;5008906;28;20201;-34
2023/06/08 01:10:32;;;;;;;8.63;6.15;;;20.50;96.10;;;;;;5004157;28;20308;-34
2023/06/08 01:13:27;;;;;;;9.48;6.55;;;20.40;96.00;;;;;;5015733;28;20228;-34
2023/06/08 01:16:07;;;;;;;10.88;6.47;;;20.40;96.10;;;;;;5003557;28;20233;-34
2023/06/08 01:18:39;;;;;;;11.40;6.82;;;20.30;95.90;;;;;;4998664;28;20244;-34
2023/06/08 01:21:24;;;;;;;11.88;7.38;;;20.30;95.90;;;;;;4996440;28;20616;-34
2023/06/08 01:24:12;;;;;;;9.60;6.60;;;20.30;96.00;;;;;;5003786;28;20225;-35
2023/06/08 01:26:42;;;;;;;9.95;6.53;;;20.30;96.00;;;;;;5001035;28;20210;-35
2023/06/08 01:29:11;;;;;;;10.60;7.32;;;20.20;95.90;;;;;;5020616;28;20271;-35
2023/06/08 01:31:39;;;;;;;14.05;7.78;;;20.20;95.90;;;;;;5019534;28;20228;-34
2023/06/08 01:34:10;;;;;;;10.02;6.85;;;20.10;95.90;;;;;;5020478;28;20409;-35
2023/06/08 01:37:00;;;;;;;13.93;7.28;;;20.10;95.90;;;;;;5020753;28;20201;-34
2023/06/08 01:39:50;;;;;;;15.23;7.55;;;20.10;96.00;;;;;;5019419;28;20702;-35
2023/06/08 01:42:20;;;;;;;12.30;7.35;;;20.00;95.90;;;;;;5018342;28;20304;-35
2023/06/08 01:45:00;;;;;;;13.88;7.28;;;20.00;96.10;;;;;;5021599;28;20228;-35
2023/06/08 01:47:42;;;;;;;11.43;7.20;;;19.90;96.10;;;;;;5020837;28;20204;-34
2023/06/08 01:50:15;;;;;;;12.75;6.75;;;19.90;96.10;;;;;;5019759;28;20235;-34
2023/06/08 01:52:45;;;;;;;14.50;7.78;;;19.80;96.00;;;;;;5021348;28;20222;-34
2023/06/08 01:55:20;;;;;;;11.88;7.60;;;19.70;96.10;;;;;;5021734;28;20251;-34
2023/06/08 01:57:52;;;;;;;15.77;7.45;;;19.70;96.10;;;;;;5022242;28;20224;-34
2023/06/08 02:00:22;;;;;;;11.82;7.47;;;19.70;96.20;;;;;;5019010;28;20219;-34
2023/06/08 02:02:49;;;;;;;12.15;7.32;;;19.60;96.00;;;;;;5001649;28;20201;-34
2023/06/08 02:05:21;;;;;;;10.32;7.80;;;19.60;96.20;;;;;;5018148;28;20200;-34
2023/06/08 02:07:51;;;;;;;11.20;7.40;;;19.50;96.30;;;;;;5020707;28;20216;-34
2023/06/08 02:10:22;;;;;;;11.30;7.38;;;19.50;96.10;;;;;;5021764;28;20205;-34
2023/06/08 02:12:52;;;;;;;15.07;7.75;;;19.40;96.20;;;;;;5020550;28;20600;-35
2023/06/08 02:15:21;;;;;;;12.30;7.55;;;19.30;96.10;;;;;;5003830;28;20750;-34
2023/06/08 02:17:49;;;;;;;12.30;7.80;;;19.30;96.50;;;;;;5009456;28;20638;-34
2023/06/08 02:20:18;;;;;;;8.20;6.63;;;19.30;96.20;;;;;;5012232;28;20228;-34
2023/06/08 02:22:47;;;;;;;10.48;7.32;;;19.20;96.10;;;;;;5004988;28;20258;-34
2023/06/08 02:25:17;;;;;;;12.40;7.47;;;19.20;96.10;;;;;;5007883;28;20218;-34
2023/06/08 02:27:49;;;;;;;13.95;7.38;;;19.20;96.20;;;;;;4987719;28;20211;-34
2023/06/08 02:30:19;;;;;;;12.18;7.50;;;19.20;96.30;;;;;;5020698;28;20374;-34
2023/06/08 02:32:49;;;;;;;11.07;7.15;;;19.10;96.10;;;;;;5020067;28;20660;-34
2023/06/08 02:35:16;;;;;;;13.05;6.90;;;19.10;96.20;;;;;;5019444;28;20213;-34
2023/06/08 02:37:46;;;;;;;12.20;6.95;;;19.10;96.00;;;;;;5024504;28;20315;-34
2023/06/08 02:40:13;;;;;;;12.25;6.93;;;19.00;96.00;;;;;;5024973;28;20225;-34
2023/06/08 02:42:43;;;;;;;8.70;6.32;;;19.00;96.00;;;;;;5023103;28;20232;-34
2023/06/08 02:45:15;;;;;;;11.38;7.30;;;18.90;96.00;;;;;;5006827;28;20304;-34
2023/06/08 02:47:45;;;;;;;12.52;7.45;;;18.90;96.00;;;;;;5023565;28;20228;-34
2023/06/08 02:50:14;;;;;;;11.38;6.53;;;18.90;96.00;;;;;;5022441;28;20208;-34
2023/06/08 02:52:42;;;;;;;12.45;7.05;;;18.90;96.00;;;;;;5023950;28;20620;-34
2023/06/08 02:55:12;;;;;;;10.68;6.57;;;18.90;95.90;;;;;;5024245;28;20675;-34
2023/06/08 02:57:40;;;;;;;12.52;7.25;;;18.90;96.10;;;;;;5023351;28;20254;-34
2023/06/08 03:00:13;;;;;;;11.05;7.13;;;18.80;96.00;;;;;;5004861;28;20260;-34
2023/06/08 03:02:41;;;;;;;11.15;7.68;;;18.80;96.10;;;;;;5023732;28;20237;-34
2023/06/08 03:05:11;;;;;;;11.10;7.28;;;18.80;96.00;;;;;;5024689;28;20201;-34
2023/06/08 03:07:40;;;;;;;12.90;7.38;;;18.80;96.00;;;;;;5022937;28;20203;-35
2023/06/08 03:10:10;;;;;;;11.27;6.82;;;18.70;96.10;;;;;;5020474;28;20209;-34
2023/06/08 03:12:42;;;;;;;12.02;7.57;;;18.70;96.00;;;;;;5008858;28;20229;-35
2023/06/08 03:15:12;;;;;;;11.20;7.85;;;18.70;96.20;;;;;;5022385;28;20213;-35
2023/06/08 03:17:42;;;;;;;10.80;7.68;;;18.70;96.40;;;;;;5022439;28;20213;-34
2023/06/08 03:20:13;;;;;;;11.57;7.13;;;18.60;96.20;;;;;;5021844;28;20228;-35
2023/06/08 03:22:45;;;;;;;13.13;7.30;;;18.60;96.10;;;;;;5023334;28;20247;-34
2023/06/08 03:25:16;;;;;;;11.75;7.55;;;18.60;96.30;;;;;;5024244;28;20354;-34
2023/06/08 03:27:46;;;;;;;12.70;7.72;;;18.50;96.10;;;;;;5022632;28;20695;-34
2023/06/08 03:30:13;;;;;;;11.82;7.47;;;18.50;96.20;;;;;;5022550;28;20292;-34
2023/06/08 03:32:48;;;;;;;10.55;7.20;;;18.50;96.20;;;;;;5023733;28;20283;-34
2023/06/08 03:35:16;;;;;;;11.05;7.03;;;18.50;96.20;;;;;;5021559;28;20228;-34
2023/06/08 03:37:46;;;;;;;14.82;7.95;;;18.40;96.00;;;;;;5020873;28;20298;-35
2023/06/08 03:40:20;;;;;;;11.80;8.10;;;18.50;96.10;;;;;;5009419;28;20364;-34
2023/06/08 03:42:50;;;;;;;12.48;7.07;;;18.40;96.20;;;;;;5005128;28;20248;-34
2023/06/08 03:45:23;;;;;;;13.40;7.97;;;18.40;96.10;;;;;;5010845;28;20307;-35
2023/06/08 03:47:50;;;;;;;12.35;7.75;;;18.40;96.20;;;;;;5002331;28;20224;-34
2023/06/08 03:50:19;;;;;;;16.00;7.93;;;18.40;96.20;;;;;;5003359;28;20699;-34
2023/06/08 03:52:47;;;;;;;17.30;8.25;;;18.40;96.20;;;;;;5002623;28;20508;-34
2023/06/08 03:55:16;;;;;;;11.05;7.53;;;18.30;96.40;;;;;;5002337;28;20774;-34
2023/06/08 03:57:48;;;;;;;12.50;7.65;;;18.30;96.20;;;;;;5021585;28;20215;-34
2023/06/08 04:00:16;;;;;;;14.00;7.85;;;18.30;96.30;;;;;;5021384;28;20379;-35
2023/06/08 04:02:43;;;;;;;13.13;7.93;;;18.30;96.20;;;;;;5022476;28;20782;-34
2023/06/08 04:05:32;;;;;;;14.13;8.07;;;18.30;96.30;;;;;;5017357;28;20209;-34
2023/06/08 04:08:02;;;;;;;13.30;8.60;;;18.20;96.40;;;;;;5001809;28;20271;-34
2023/06/08 04:10:31;;;;;;;14.18;7.97;;;18.20;96.40;;;;;;5010974;28;20874;-34
2023/06/08 04:13:01;;;;;;;12.88;8.05;;;18.20;96.30;;;;;;5021011;28;20319;-34
2023/06/08 04:15:28;;;;;;;10.82;8.43;;;18.20;96.50;;;;;;5023726;28;20678;-34
2023/06/08 04:17:57;;;;;;;14.20;8.45;;;18.10;96.30;;;;;;5018587;28;20245;-34
2023/06/08 04:20:28;;;;;;;15.07;8.85;;;18.20;96.40;;;;;;5002359;28;20685;-35
2023/06/08 04:22:56;;;;;;;12.93;8.20;;;18.10;96.50;;;;;;5010966;28;20201;-34
2023/06/08 04:25:25;;;;;;;13.38;8.75;;;18.10;96.50;;;;;;5023006;28;20204;-34
2023/06/08 04:27:56;;;;;;;15.20;9.15;;;18.10;96.50;;;;;;5023473;28;20197;-35
2023/06/08 04:30:23;;;;;;;12.73;8.75;;;18.10;96.70;;;;;;5021667;28;20213;-34
2023/06/08 04:32:52;;;;;;;12.85;8.25;;;18.00;96.60;;;;;;5023427;28;20559;-34
2023/06/08 04:35:22;;;;;;;11.43;8.40;;;18.00;96.50;;;;;;5019888;28;20304;-34
2023/06/08 04:37:50;;;;;;;13.15;8.20;;;18.10;96.60;;;;;;5021284;28;20287;-34
2023/06/08 04:40:19;;;;;;;14.10;8.75;;;18.10;96.40;;;;;;5023277;28;20241;-34
2023/06/08 04:42:50;;;;;;;13.15;8.63;;;18.10;96.60;;;;;;5020189;28;20328;-34
2023/06/08 04:45:20;;;;;;;13.07;9.93;;;18.10;96.60;;;;;;5021413;28;20247;-34
2023/06/08 04:47:51;;;;;;;15.90;8.73;;;18.10;96.90;;;;;;5022554;28;20650;-34
2023/06/08 04:50:21;;;;;;;16.95;9.13;;;18.10;96.70;;;;;;5019280;28;20256;-34
2023/06/08 04:52:55;;;;;;;13.60;8.45;;;18.10;96.70;;;;;;5000946;28;20201;-34
2023/06/08 04:55:27;;;;;;;15.60;9.30;;;18.10;97.10;;;;;;5003548;28;20563;-34
2023/06/08 04:57:57;;;;;;;17.30;9.60;;;18.10;96.80;;;;;;5013665;28;20209;-34
2023/06/08 05:00:26;;;;;;;16.27;10.48;;;18.10;97.10;;;;;;5004694;28;20217;-34
2023/06/08 05:02:56;;;;;;;12.88;9.10;;;18.10;97.00;;;;;;5000691;28;20271;-35
2023/06/08 05:05:26;;;;;;;12.75;9.00;;;18.10;97.00;;;;;;5014777;28;20561;-35
2023/06/08 05:07:56;;;;;;;15.30;9.90;;;18.20;97.00;;;;;;5003239;28;20900;-35
2023/06/08 05:10:23;;;;;;;13.07;9.50;;;18.20;97.00;;;;;;5010193;28;20206;-35
2023/06/08 05:12:52;;;;;;;17.17;9.98;;;18.20;97.00;;;;;;5018116;28;20225;-35
2023/06/08 05:15:19;;;;;;;13.73;9.50;;;18.20;97.20;;;;;;5017681;28;20295;-35
2023/06/08 05:17:52;;;;;;;15.00;10.18;;;18.20;97.00;;;;;;5001219;28;20363;-35
2023/06/08 05:20:23;;;;;;;16.83;10.13;;;18.20;97.20;;;;;;5003854;28;20236;-35
2023/06/08 05:22:51;;;;;;;15.65;10.02;;;18.20;97.10;;;;;;5001133;28;20665;-36
2023/06/08 05:25:19;;;;;;;15.30;10.27;;;18.20;97.10;;;;;;5009575;28;20562;-35
2023/06/08 05:27:48;;;;;;;14.82;10.68;;;18.30;97.20;;;;;;5007714;28;20192;-35
2023/06/08 05:30:21;;;;;;;17.95;10.65;;;18.30;97.30;;;;;;5006274;28;20560;-35
2023/06/08 05:32:48;;;;;;;18.15;10.73;;;18.30;97.50;;;;;;4993819;28;20303;-35
2023/06/08 05:35:20;;;;;;;16.08;10.40;;;18.30;97.50;;;;;;5006232;28;20295;-35
2023/06/08 05:37:47;;;;;;;15.35;10.10;;;18.30;97.30;;;;;;5005150;28;20231;-36
2023/06/08 05:40:14;;;;;;;14.75;10.45;;;18.30;97.40;;;;;;5010035;28;20252;-35
2023/06/08 05:42:42;;;;;;;14.27;10.90;;;18.40;97.40;;;;;;5004319;28;20603;-35
2023/06/08 05:45:15;;;;;;;17.73;10.85;;;18.40;97.40;;;;;;5019487;28;20205;-35
2023/06/08 05:47:44;;;;;;;16.27;10.35;;;18.40;97.60;;;;;;5006224;28;20916;-36
2023/06/08 05:50:14;;;;;;;17.60;10.85;;;18.40;97.40;;;;;;5009725;28;20216;-35
2023/06/08 05:52:44;;;;;;;18.45;11.05;;;18.40;97.60;;;;;;5000258;28;20209;-35
2023/06/08 05:55:11;;;;;;;14.77;10.73;;;18.40;97.40;;;;;;4994977;28;20216;-36
2023/06/08 05:57:46;;;;;;;19.00;11.68;;;18.50;97.50;;;;;;5001839;28;20224;-35
2023/06/08 06:00:13;;;;;;;16.13;11.02;;;18.50;97.50;;;;;;5012445;28;20299;-35
2023/06/08 06:02:45;;;;;;;17.80;10.90;;;18.60;97.50;;;;;;5019506;28;20235;-35
2023/06/08 06:05:15;;;;;;;17.35;10.82;;;18.60;97.60;;;;;;5018832;28;20212;-35
2023/06/08 06:07:42;;;;;;;19.48;11.50;;;18.60;97.60;;;;;;5021060;28;20630;-35
2023/06/08 06:10:10;;;;;;;19.50;11.35;;;18.60;97.60;;;;;;5023974;28;20328;-35
2023/06/08 06:12:40;;;;;;;19.17;10.80;;;18.70;97.60;;;;;;5023969;28;20219;-35
2023/06/08 06:15:10;;;;;;;17.40;11.88;;;18.70;97.70;;;;;;5026460;28;20369;-36
2023/06/08 06:17:40;;;;;;;13.70;10.73;;;18.70;97.80;;;;;;5023143;28;20291;-36
2023/06/08 06:20:13;;;;;;;18.55;11.90;;;18.80;97.70;;;;;;5018474;28;20716;-35
2023/06/08 06:22:45;;;;;;;16.33;11.43;;;18.90;97.70;;;;;;5024802;28;20204;-36
2023/06/08 06:25:17;;;;;;;18.40;11.82;;;18.90;97.80;;;;;;5021656;28;20207;-35
2023/06/08 06:27:46;;;;;;;20.38;12.10;;;18.90;97.90;;;;;;5019893;28;20281;-36
2023/06/08 06:30:15;;;;;;;15.23;10.93;;;18.90;97.90;;;;;;5003711;28;20270;-36
2023/06/08 06:32:47;;;;;;;15.90;11.02;;;19.00;97.80;;;;;;5018363;28;20203;-36
2023/06/08 06:35:22;;;;;;;20.20;12.90;;;19.00;97.80;;;;;;5023992;28;20224;-36
2023/06/08 06:37:53;;;;;;;19.40;11.50;;;19.00;98.00;;;;;;5021206;28;20214;-36
2023/06/08 06:40:24;;;;;;;18.17;11.20;;;19.00;97.80;;;;;;5006075;28;20224;-36
2023/06/08 06:42:57;;;;;;;19.48;11.75;;;19.10;97.90;;;;;;5024699;28;20232;-36
2023/06/08 06:45:25;;;;;;;18.35;12.23;;;19.10;98.00;;;;;;5022680;28;20275;-36
2023/06/08 06:47:52;;;;;;;16.98;12.02;;;19.10;97.90;;;;;;5023867;28;20243;-36
2023/06/08 06:50:19;;;;;;;16.80;10.88;;;19.20;98.00;;;;;;5020213;28;20259;-35
2023/06/08 06:52:46;;;;;;;19.80;11.27;;;19.20;97.90;;;;;;5026015;28;20235;-35
2023/06/08 06:55:14;;;;;;;15.02;11.02;;;19.30;98.30;;;;;;5025159;28;20693;-35
2023/06/08 06:57:44;;;;;;;17.30;11.15;;;19.30;97.90;;;;;;5020544;28;20223;-35
2023/06/08 07:00:16;;;;;;;16.65;11.40;;;19.40;98.10;;;;;;5021558;28;20312;-36
2023/06/08 07:02:48;;;;;;;14.50;11.25;;;19.40;98.00;;;;;;5025147;28;20228;-35
2023/06/08 07:05:19;;;;;;;20.13;11.38;;;19.50;98.10;;;;;;5021997;28;20302;-35
2023/06/08 07:07:48;;;;;;;16.15;12.20;;;19.40;98.00;;;;;;5021772;28;20695;-35
2023/06/08 07:10:16;;;;;;;17.90;12.55;;;19.50;98.10;;;;;;5004842;28;20229;-35
2023/06/08 07:12:48;;;;;;;18.67;11.98;;;19.50;98.20;;;;;;5023873;28;20732;-35
2023/06/08 07:15:18;;;;;;;12.88;10.70;;;19.60;98.20;;;;;;5022707;28;20201;-36
2023/06/08 07:17:50;;;;;;;15.88;10.68;;;19.60;98.10;;;;;;5022601;28;20275;-35
2023/06/08 07:20:19;;;;;;;18.30;12.32;;;19.70;98.20;;;;;;5022229;28;20233;-35
2023/06/08 07:22:49;;;;;;;18.85;11.93;;;19.70;98.30;;;;;;5023522;28;20212;-36
2023/06/08 07:25:40;;;;;;;19.10;12.05;;;19.80;98.30;;;;;;5021917;28;20231;-36
2023/06/08 07:28:27;;;;;;;16.30;11.05;;;19.80;98.30;;;;;;5021316;28;20615;-36
2023/06/08 07:30:57;;;;;;;18.15;11.50;;;19.90;98.30;;;;;;5002098;28;20240;-36
2023/06/08 07:33:26;;;;;;;24.80;12.82;;;19.90;98.30;;;;;;5018436;28;20219;-35
2023/06/08 07:35:56;;;;;;;16.40;11.95;;;20.00;98.40;;;;;;5019367;28;20267;-35
2023/06/08 07:38:26;;;;;;;20.33;12.20;;;20.00;98.40;;;;;;5014374;28;20282;-35
2023/06/08 07:40:56;;;;;;;24.30;11.98;;;20.10;98.40;;;;;;5020683;28;20232;-35
2023/06/08 07:43:26;;;;;;;19.00;11.85;;;20.10;98.40;;;;;;5020646;28;20793;-35
2023/06/08 07:45:56;;;;;;;25.67;11.80;;;20.20;98.40;;;;;;5020952;28;20263;-35
2023/06/08 07:48:24;;;;;;;23.23;14.23;;;20.30;98.50;;;;;;5000320;28;20204;-35
2023/06/08 07:50:53;;;;;;;19.73;13.15;;;20.30;98.70;;;;;;5011968;28;20850;-35
2023/06/08 07:53:20;;;;;;;18.05;12.05;;;20.40;98.60;;;;;;5015326;28;20228;-36
2023/06/08 07:55:48;;;;;;;16.63;13.43;;;20.40;98.60;;;;;;5023889;28;20740;-35
2023/06/08 07:58:17;;;;;;;22.33;13.43;;;20.40;98.70;;;;;;5000945;28;20552;-35
2023/06/08 08:00:47;;;;;;;18.45;13.02;;;20.40;98.70;;;;;;4995220;28;20327;-37
2023/06/08 08:03:19;;;;;;;19.85;12.48;;;20.40;98.60;;;;;;5022034;28;20235;-35
2023/06/08 08:05:49;;;;;;;18.88;12.23;;;20.50;98.70;;;;;;5021590;28;20204;-35
2023/06/08 08:08:24;;;;;;;20.30;12.45;;;20.50;98.80;;;;;;5017463;28;20283;-35
2023/06/08 08:10:51;;;;;;;20.05;13.32;;;20.50;99.00;;;;;;5015821;28;20311;-35
2023/06/08 08:13:20;;;;;;;17.88;13.40;;;20.50;98.70;;;;;;4981390;28;20333;-35
2023/06/08 08:15:52;;;;;;;18.35;13.15;;;20.60;98.80;;;;;;4986692;28;20255;-36
2023/06/08 08:18:20;;;;;;;23.13;13.57;;;20.60;98.80;;;;;;5016325;28;20690;-35
2023/06/08 08:20:52;;;;;;;17.70;11.77;;;20.60;98.80;;;;;;5020318;28;20320;-36
2023/06/08 08:23:20;;;;;;;18.77;12.93;;;20.70;98.80;;;;;;5002410;28;20209;-36
2023/06/08 08:25:47;;;;;;;19.33;14.07;;;20.70;98.80;;;;;;5007604;28;20267;-35
2023/06/08 08:28:29;;;;;;;20.95;13.30;;;20.80;98.90;;;;;;5020647;28;20653;-35
2023/06/08 08:30:57;;;;;;;18.40;12.65;;;20.80;98.90;;;;;;5014818;28;20210;-35
2023/06/08 08:33:26;;;;;;;14.23;10.82;;;20.90;99.00;;;;;;5003857;28;20209;-36
2023/06/08 08:35:56;;;;;;;16.23;12.15;;;20.90;98.90;;;;;;5014162;28;20216;-35
2023/06/08 08:38:23;;;;;;;18.13;13.63;;;21.00;99.00;;;;;;5014905;28;20206;-35
2023/06/08 08:41:01;;;;;;;17.67;12.95;;;21.10;99.10;;;;;;5019810;28;20781;-36
2023/06/08 08:43:40;;;;;;;19.48;13.48;;;21.20;99.10;;;;;;5021679;28;20244;-36
2023/06/08 08:46:11;;;;;;;20.10;13.13;;;21.20;99.10;;;;;;5022294;28;20369;-35
2023/06/08 08:48:45;;;;;;;22.13;14.40;;;21.30;99.20;;;;;;5021744;28;20873;-36
2023/06/08 08:51:20;;;;;;;17.10;13.63;;;21.30;99.20;;;;;;5018120;28;20644;-35
2023/06/08 08:53:49;;;;;;;19.05;13.38;;;21.30;99.20;;;;;;5003590;28;20217;-34
2023/06/08 08:56:28;;;;;;;17.23;13.00;;;21.40;99.20;;;;;;5013999;28;20216;-34
2023/06/08 08:59:00;;;;;;;23.13;14.75;;;21.50;99.30;;;;;;5020212;28;20212;-34
2023/06/08 09:01:32;;;;;;;18.83;13.25;;;21.50;99.30;;;;;;5019926;28;20272;-34
2023/06/08 09:04:03;;;;;;;16.98;12.73;;;21.50;99.30;;;;;;5019938;28;20215;-35
2023/06/08 09:06:33;;;;;;;22.60;14.45;;;21.60;99.30;;;;;;5019247;28;20556;-34
2023/06/08 09:09:05;;;;;;;26.67;14.77;;;21.60;99.30;;;;;;5022525;28;20197;-34
2023/06/08 09:11:34;;;;;;;23.45;14.57;;;21.70;99.30;;;;;;5021258;28;20225;-34
2023/06/08 09:14:12;;;;;;;17.08;13.23;;;21.70;99.30;;;;;;5018928;28;20232;-35
2023/06/08 09:16:43;;;;;;;17.73;12.75;;;21.70;99.30;;;;;;5020545;28;20212;-34
2023/06/08 09:19:11;;;;;;;19.23;12.13;;;21.80;99.30;;;;;;5017652;28;20690;-34
2023/06/08 09:21:40;;;;;;;18.88;12.95;;;21.90;99.40;;;;;;5005268;28;20233;-37
2023/06/08 09:24:18;;;;;;;21.55;13.60;;;22.00;99.50;;;;;;5019347;28;20638;-35
2023/06/08 09:26:56;;;;;;;25.50;15.98;;;22.00;99.50;;;;;;5022812;28;20639;-35
2023/06/08 09:29:40;;;;;;;15.85;12.95;;;22.10;99.50;;;;;;5021019;28;20326;-35
2023/06/08 09:32:16;;;;;;;17.88;13.68;;;22.10;99.40;;;;;;5021417;28;20296;-35
2023/06/08 09:35:01;;;;;;;21.08;14.90;;;22.10;99.40;;;;;;5017637;28;20236;-34
2023/06/08 09:37:36;;;;;;;22.52;14.20;;;22.20;99.40;;;;;;5012685;28;20216;-35
2023/06/08 09:40:04;;;;;;;23.38;14.43;;;22.20;99.40;;;;;;5022622;28;20369;-36
2023/06/08 09:42:43;;;;;;;18.67;13.95;;;22.20;99.50;;;;;;4999387;28;20248;-36
2023/06/08 09:45:20;;;;;;;18.75;13.98;;;22.30;99.50;;;;;;5004387;28;20217;-36
2023/06/08 09:48:08;;;;;;;17.83;12.73;;;22.30;99.50;;;;;;5006455;28;20196;-36
2023/06/08 09:50:42;;;;;;;21.35;14.00;;;22.40;99.50;;;;;;5006172;28;20201;-36
2023/06/08 09:53:11;;;;;;;22.85;13.50;;;22.40;99.50;;;;;;5017899;28;20207;-36
2023/06/08 09:55:41;;;;;;;19.55;15.13;;;22.50;99.50;;;;;;5012646;28;20221;-36
2023/06/08 09:58:10;;;;;;;22.80;14.35;;;22.50;99.40;;;;;;5018733;28;20196;-36
2023/06/08 10:00:41;;;;;;;24.10;15.05;;;22.50;99.50;;;;;;5026261;28;20587;-36
2023/06/08 10:03:28;;;;;;;19.30;15.38;;;22.60;99.50;;;;;;5022908;28;20209;-35
2023/06/08 10:05:57;;;;;;;20.42;14.55;;;22.70;99.50;;;;;;5004892;28;20603;-35
2023/06/08 10:08:27;;;;;;;15.35;13.82;;;22.70;99.40;;;;;;5017380;28;20297;-36
2023/06/08 10:10:58;;;;;;;17.10;14.13;;;22.80;99.40;;;;;;5025737;28;20240;-36
2023/06/08 10:13:27;;;;;;;18.50;13.82;;;22.80;99.40;;;;;;5022151;28;20220;-36
2023/06/08 10:15:59;;;;;;;16.38;13.15;;;22.80;99.40;;;;;;5006058;28;20621;-36
2023/06/08 10:18:29;;;;;;;15.95;12.88;;;22.80;99.50;;;;;;5022585;28;20212;-36
2023/06/08 10:20:57;;;;;;;18.38;13.48;;;22.90;99.40;;;;;;5023886;28;20221;-36
2023/06/08 10:23:27;;;;;;;16.17;13.32;;;22.90;99.30;;;;;;5021028;28;20288;-36
2023/06/08 10:25:57;;;;;;;17.35;12.63;;;22.90;99.30;;;;;;5024609;28;20707;-36
2023/06/08 10:28:26;;;;;;;24.08;15.20;;;23.00;99.40;;;;;;5023110;28;20290;-36
2023/06/08 10:30:55;;;;;;;20.23;14.23;;;23.00;99.30;;;;;;5023319;28;20292;-35
2023/06/08 10:33:24;;;;;;;16.05;13.10;;;23.00;99.40;;;;;;5024193;28;20228;-36
2023/06/08 10:36:07;;;;;;;15.60;12.60;;;23.10;99.50;;;;;;5023062;28;20299;-36
2023/06/08 10:38:59;;;;;;;18.05;13.02;;;23.20;99.50;;;;;;5002578;28;20233;-36
2023/06/08 10:41:58;;;;;;;15.80;13.38;;;23.20;99.20;;;;;;5009293;28;20565;-36
2023/06/08 10:44:27;;;;;;;14.45;11.43;;;23.20;99.40;;;;;;5023446;28;20668;-36
2023/06/08 10:47:00;;;;;;;19.60;13.13;;;23.30;99.40;;;;;;5024856;28;20204;-36
2023/06/08 10:49:35;;;;;;;13.40;10.15;;;23.30;99.40;;;;;;5024099;28;20209;-36
2023/06/08 10:52:07;;;;;;;19.42;12.20;;;23.40;99.60;;;;;;5021106;28;20200;-36
2023/06/08 10:54:56;;;;;;;22.30;14.57;;;23.50;99.50;;;;;;5018360;28;20200;-35
2023/06/08 10:57:50;;;;;;;18.00;13.50;;;23.60;99.50;;;;;;5021635;28;20216;-36
2023/06/08 11:00:28;;;;;;;16.65;13.30;;;23.70;99.40;;;;;;5017612;28;20212;-36
2023/06/08 11:03:04;;;;;;;17.33;14.02;;;23.70;99.10;;;;;;5015517;28;20229;-35
2023/06/08 11:05:37;;;;;;;21.20;13.13;;;23.70;99.20;;;;;;5011314;28;20204;-36
2023/06/08 11:08:07;;;;;;;14.90;12.43;;;23.70;99.20;;;;;;5020991;28;20353;-36
2023/06/08 11:10:43;;;;;;;15.23;11.57;;;23.80;99.10;;;;;;5014178;28;20209;-36
2023/06/08 11:13:13;;;;;;;21.95;15.05;;;23.80;99.20;;;;;;5006745;28;20909;-36
2023/06/08 11:15:46;;;;;;;15.68;11.88;;;23.90;99.20;;;;;;5024370;28;20262;-36
2023/06/08 11:18:19;;;;;;;16.83;12.45;;;24.00;99.30;;;;;;5022677;28;20321;-36
2023/06/08 11:20:46;;;;;;;14.13;9.85;;;24.00;99.20;;;;;;5024220;28;20659;-36
2023/06/08 11:23:16;;;;;;;21.35;11.20;;;24.10;99.40;;;;;;5003378;28;20294;-36
2023/06/08 11:25:47;;;;;;;15.95;11.43;;;24.20;99.50;;;;;;5023866;28;20205;-35
2023/06/08 11:28:17;;;;;;;16.98;12.18;;;24.30;99.50;;;;;;5011320;28;20515;-36
2023/06/08 11:30:44;;;;;;;13.77;10.80;;;24.30;99.20;;;;;;5002513;28;20217;-36
2023/06/08 11:33:17;;;;;;;12.85;10.35;;;24.40;99.40;;;;;;5004464;28;20205;-35
2023/06/08 11:35:55;;;;;;;13.35;10.02;;;24.50;99.50;;;;;;5015565;28;20205;-36
2023/06/08 11:38:23;;;;;;;11.77;9.32;;;24.50;99.10;;;;;;5019911;28;20244;-36
2023/06/08 11:40:59;;;;;;;13.52;9.35;;;24.50;99.20;;;;;;5023912;28;20815;-36
2023/06/08 11:43:29;;;;;;;16.75;11.18;;;24.60;99.20;;;;;;5018255;28;20590;-36
2023/06/08 11:46:00;;;;;;;17.15;10.40;;;24.60;99.10;;;;;;5013888;28;20236;-36
2023/06/08 11:48:27;;;;;;;13.75;9.05;;;24.70;99.20;;;;;;5002126;28;20312;-36
2023/06/08 11:50:57;;;;;;;14.68;9.77;;;24.80;99.30;;;;;;4988574;28;20209;-36
2023/06/08 11:53:24;;;;;;;10.02;8.30;;;24.90;99.00;;;;;;5021080;28;20288;-36
2023/06/08 11:55:53;;;;;;;21.05;9.55;;;24.90;99.10;;;;;;5018834;28;20232;-36
2023/06/08 11:58:26;;;;;;;18.80;9.82;;;25.00;99.00;;;;;;5017736;28;20217;-36
2023/06/08 12:01:11;;;;;;;13.60;8.43;;;25.00;98.60;;;;;;5004003;28;20653;-36
2023/06/08 12:03:46;;;;;;;14.82;8.68;;;25.10;99.00;;;;;;5012611;28;20268;-36
2023/06/08 12:06:18;;;;;;;10.70;8.23;;;25.20;98.90;;;;;;5019965;28;20444;-36
2023/06/08 12:08:48;;;;;;;12.90;8.70;;;25.20;98.90;;;;;;5014000;28;20543;-36
2023/06/08 12:11:21;;;;;;;12.63;8.50;;;25.20;98.60;;;;;;5021135;28;20204;-36
2023/06/08 12:13:55;;;;;;;11.40;8.63;;;25.30;98.80;;;;;;5022031;28;20454;-36
2023/06/08 12:16:24;;;;;;;14.02;9.38;;;25.30;98.40;;;;;;5003554;28;20217;-36
2023/06/08 12:18:56;;;;;;;13.00;8.30;;;25.40;98.30;;;;;;5016843;28;20667;-36
2023/06/08 12:21:23;;;;;;;10.93;8.07;;;25.40;98.60;;;;;;5015664;28;20339;-36
2023/06/08 12:23:52;;;;;;;10.68;8.10;;;25.50;98.80;;;;;;5002725;28;20264;-36
2023/06/08 12:26:26;;;;;;;10.73;6.82;;;25.60;98.10;;;;;;5002335;28;20193;-35
2023/06/08 12:28:55;;;;;;;11.45;8.32;;;25.60;98.90;;;;;;5010538;28;20526;-36
2023/06/08 12:31:22;;;;;;;14.13;7.47;;;25.70;98.70;;;;;;5005763;28;20260;-36
2023/06/08 12:33:56;;;;;;;14.30;9.55;;;25.70;98.80;;;;;;5003117;28;20221;-36
2023/06/08 12:36:25;;;;;;;10.63;8.60;;;25.80;98.40;;;;;;5014718;28;20250;-36
2023/06/08 12:38:55;;;;;;;12.45;9.10;;;25.90;98.60;;;;;;5023040;28;20224;-36
2023/06/08 12:41:23;;;;;;;13.40;8.68;;;25.90;98.40;;;;;;5006789;28;20276;-36
2023/06/08 12:43:50;;;;;;;13.57;9.82;;;25.90;98.20;;;;;;5003099;28;20299;-36
2023/06/08 12:46:22;;;;;;;10.43;7.97;;;25.90;97.50;;;;;;5017397;28;20205;-36
2023/06/08 12:48:50;;;;;;;11.70;7.85;;;25.90;98.20;;;;;;5022396;28;20209;-36
2023/06/08 12:51:18;;;;;;;10.18;7.20;;;26.00;98.00;;;;;;5013756;28;20526;-36
2023/06/08 12:53:46;;;;;;;10.00;7.78;;;26.10;98.00;;;;;;5007871;28;20233;-36
2023/06/08 12:56:13;;;;;;;10.27;7.47;;;26.10;98.00;;;;;;5006735;28;20280;-36